THY5SM LTFM-EDDF
Flight info
| Callsign | THY5SM |
|---|---|
| Flight time | N/A |
| Altitude | 40000 |
| Route | VADEN1D/35L VADEN N618 BAKLO DCT XANEX DCT UTEKA DCT BABIT DCT GOTAR DCT ABRUK DCT SIMBA DCT AKINI T161 DEBHI DEBHI1B |
| Aircraft | A359/H-SDE2E3GHIJ3J4J5LM1ORWXY/LB1D1 |
Departure
| Time | 2026-05-06 15:53 |
|---|---|
| Airport | İstanbul Airport (LTFM) |
Arrival
| Time | N/A |
|---|---|
| Airport | Frankfurt Main Airport (EDDF) |
| Time | Latitude | Longitude | Altitude | Speed | Heading |
|---|---|---|---|---|---|
| 2026-05-06 15:15 | 41.26778 | 28.73530 | 338 ft | 0 kts | 179° |
| 2026-05-06 15:39 | 41.26780 | 28.73530 | 339 ft | 1 kts | 180° |
| 2026-05-06 15:40 | 41.26795 | 28.73530 | 339 ft | 2 kts | 188° |
| 2026-05-06 15:40 | 41.26810 | 28.73535 | 339 ft | 2 kts | 200° |
| 2026-05-06 15:40 | 41.26823 | 28.73542 | 339 ft | 2 kts | 209° |
| 2026-05-06 15:40 | 41.26836 | 28.73553 | 339 ft | 2 kts | 219° |
| 2026-05-06 15:41 | 41.26847 | 28.73566 | 339 ft | 2 kts | 229° |
| 2026-05-06 15:41 | 41.26856 | 28.73582 | 339 ft | 2 kts | 238° |
| 2026-05-06 15:41 | 41.26863 | 28.73599 | 339 ft | 2 kts | 248° |
| 2026-05-06 15:41 | 41.26868 | 28.73618 | 339 ft | 2 kts | 258° |
| 2026-05-06 15:42 | 41.26870 | 28.73638 | 339 ft | 1 kts | 268° |
| 2026-05-06 15:42 | 41.26870 | 28.73645 | 339 ft | 0 kts | 270° |
| 2026-05-06 15:45 | 41.26870 | 28.73644 | 339 ft | 0 kts | 270° |
| 2026-05-06 15:45 | 41.26870 | 28.73618 | 339 ft | 4 kts | 269° |
| 2026-05-06 15:45 | 41.26870 | 28.73570 | 339 ft | 6 kts | 269° |
| 2026-05-06 15:46 | 41.26869 | 28.73503 | 339 ft | 8 kts | 269° |
| 2026-05-06 15:46 | 41.26868 | 28.73418 | 339 ft | 10 kts | 270° |
| 2026-05-06 15:46 | 41.26868 | 28.73316 | 339 ft | 12 kts | 270° |
| 2026-05-06 15:46 | 41.26867 | 28.73196 | 339 ft | 13 kts | 270° |
| 2026-05-06 15:47 | 41.26865 | 28.73060 | 339 ft | 15 kts | 262° |
| 2026-05-06 15:47 | 41.26784 | 28.72995 | 339 ft | 12 kts | 181° |
| 2026-05-06 15:47 | 41.26770 | 28.72995 | 339 ft | 2 kts | 179° |
| 2026-05-06 15:47 | 41.26743 | 28.72996 | 339 ft | 4 kts | 179° |
| 2026-05-06 15:48 | 41.26702 | 28.72996 | 339 ft | 6 kts | 179° |
| 2026-05-06 15:48 | 41.26649 | 28.72997 | 339 ft | 8 kts | 179° |
| 2026-05-06 15:48 | 41.26584 | 28.72998 | 339 ft | 9 kts | 181° |
| 2026-05-06 15:48 | 41.26530 | 28.72997 | 339 ft | 11 kts | 180° |
| 2026-05-06 15:49 | 41.26494 | 28.72997 | 339 ft | 8 kts | 180° |
| 2026-05-06 15:49 | 41.26429 | 28.72996 | 339 ft | 10 kts | 180° |
| 2026-05-06 15:49 | 41.26351 | 28.72996 | 339 ft | 11 kts | 180° |
| 2026-05-06 15:49 | 41.26264 | 28.72997 | 339 ft | 13 kts | 179° |
| 2026-05-06 15:50 | 41.26229 | 28.72980 | 339 ft | 4 kts | 235° |
| 2026-05-06 15:50 | 41.26218 | 28.72931 | 339 ft | 6 kts | 264° |
| 2026-05-06 15:50 | 41.26216 | 28.72857 | 339 ft | 9 kts | 269° |
| 2026-05-06 15:50 | 41.26215 | 28.72757 | 339 ft | 12 kts | 270° |
| 2026-05-06 15:51 | 41.26215 | 28.72630 | 339 ft | 15 kts | 270° |
| 2026-05-06 15:51 | 41.26214 | 28.72542 | 339 ft | 2 kts | 276° |
| 2026-05-06 15:51 | 41.26223 | 28.72532 | 339 ft | 2 kts | 332° |
| 2026-05-06 15:51 | 41.26245 | 28.72524 | 339 ft | 4 kts | 348° |
| 2026-05-06 15:52 | 41.26286 | 28.72520 | 339 ft | 7 kts | 359° |
| 2026-05-06 15:52 | 41.26438 | 28.72517 | 339 ft | 55 kts | 360° |
| 2026-05-06 15:52 | 41.27092 | 28.72507 | 339 ft | 129 kts | 359° |
| 2026-05-06 15:52 | 41.28151 | 28.72481 | 629 ft | 163 kts | 2° |
| 2026-05-06 15:53 | 41.29277 | 28.72474 | 1378 ft | 167 kts | 5° |
| 2026-05-06 15:53 | 41.30415 | 28.72517 | 2186 ft | 167 kts | 5° |
| 2026-05-06 15:53 | 41.31589 | 28.72559 | 2650 ft | 175 kts | 4° |
| 2026-05-06 15:53 | 41.32849 | 28.72572 | 3068 ft | 192 kts | 4° |
| 2026-05-06 15:54 | 41.34240 | 28.72593 | 3610 ft | 207 kts | 4° |
| 2026-05-06 15:54 | 41.35722 | 28.72617 | 4166 ft | 223 kts | 4° |
| 2026-05-06 15:54 | 41.37316 | 28.72523 | 4719 ft | 243 kts | 348° |
| 2026-05-06 15:54 | 41.38832 | 28.71341 | 5268 ft | 268 kts | 314° |
| 2026-05-06 15:55 | 41.39887 | 28.69225 | 6010 ft | 280 kts | 302° |
| 2026-05-06 15:55 | 41.40866 | 28.66964 | 6884 ft | 286 kts | 302° |
| 2026-05-06 15:55 | 41.41783 | 28.64846 | 7716 ft | 290 kts | 302° |
| 2026-05-06 15:55 | 41.42857 | 28.62397 | 8670 ft | 294 kts | 302° |
| 2026-05-06 15:56 | 41.43889 | 28.60070 | 9561 ft | 298 kts | 302° |
| 2026-05-06 15:56 | 41.44953 | 28.57689 | 10438 ft | 304 kts | 303° |
| 2026-05-06 15:56 | 41.46062 | 28.55220 | 11054 ft | 319 kts | 303° |
| 2026-05-06 15:56 | 41.47226 | 28.52630 | 11675 ft | 333 kts | 303° |
| 2026-05-06 15:57 | 41.48430 | 28.49951 | 12496 ft | 339 kts | 302° |
| 2026-05-06 15:57 | 41.49639 | 28.47259 | 13342 ft | 344 kts | 302° |
| 2026-05-06 15:57 | 41.50867 | 28.44522 | 14163 ft | 348 kts | 302° |
| 2026-05-06 15:57 | 41.52111 | 28.41747 | 14955 ft | 353 kts | 302° |
| 2026-05-06 15:58 | 41.53378 | 28.38917 | 15731 ft | 358 kts | 301° |
| 2026-05-06 15:58 | 41.54655 | 28.36062 | 16494 ft | 363 kts | 301° |
| 2026-05-06 15:58 | 41.55946 | 28.33170 | 17245 ft | 367 kts | 300° |
| 2026-05-06 15:58 | 41.57268 | 28.30193 | 18015 ft | 370 kts | 299° |
| 2026-05-06 15:59 | 41.58502 | 28.27174 | 18743 ft | 374 kts | 296° |
| 2026-05-06 15:59 | 41.59663 | 28.24140 | 19440 ft | 378 kts | 295° |
| 2026-05-06 15:59 | 41.60858 | 28.20964 | 20145 ft | 382 kts | 295° |
| 2026-05-06 15:59 | 41.62036 | 28.17826 | 20829 ft | 386 kts | 295° |
| 2026-05-06 16:00 | 41.63238 | 28.14630 | 21508 ft | 389 kts | 295° |
| 2026-05-06 16:00 | 41.64468 | 28.11359 | 22189 ft | 393 kts | 295° |
| 2026-05-06 16:00 | 41.65701 | 28.08085 | 22848 ft | 396 kts | 294° |
| 2026-05-06 16:00 | 41.66958 | 28.04781 | 23498 ft | 400 kts | 296° |
| 2026-05-06 16:01 | 41.68351 | 28.01527 | 24141 ft | 404 kts | 300° |
| 2026-05-06 16:01 | 41.69870 | 27.98336 | 24768 ft | 407 kts | 301° |
| 2026-05-06 16:01 | 41.71421 | 27.95149 | 25370 ft | 410 kts | 301° |
| 2026-05-06 16:01 | 41.72970 | 27.91970 | 25951 ft | 412 kts | 300° |
| 2026-05-06 16:02 | 41.74551 | 27.88715 | 26524 ft | 415 kts | 300° |
| 2026-05-06 16:02 | 41.76112 | 27.85490 | 27067 ft | 417 kts | 300° |
| 2026-05-06 16:02 | 41.77699 | 27.82201 | 27604 ft | 419 kts | 300° |
| 2026-05-06 16:02 | 41.79282 | 27.78913 | 28125 ft | 422 kts | 300° |
| 2026-05-06 16:03 | 41.80890 | 27.75570 | 28638 ft | 423 kts | 300° |
| 2026-05-06 16:03 | 41.82478 | 27.72263 | 29129 ft | 425 kts | 300° |
| 2026-05-06 16:03 | 41.84087 | 27.68907 | 29605 ft | 427 kts | 300° |
| 2026-05-06 16:03 | 41.85691 | 27.65559 | 30064 ft | 429 kts | 300° |
| 2026-05-06 16:04 | 41.87300 | 27.62196 | 30510 ft | 431 kts | 300° |
| 2026-05-06 16:04 | 41.88932 | 27.58780 | 30943 ft | 432 kts | 299° |
| 2026-05-06 16:04 | 41.90545 | 27.55401 | 31357 ft | 434 kts | 299° |
| 2026-05-06 16:04 | 41.92180 | 27.51971 | 31767 ft | 436 kts | 299° |
| 2026-05-06 16:05 | 41.93835 | 27.48494 | 32172 ft | 437 kts | 299° |
| 2026-05-06 16:05 | 41.95467 | 27.45064 | 32557 ft | 439 kts | 299° |
| 2026-05-06 16:05 | 41.97120 | 27.41584 | 32935 ft | 440 kts | 299° |
| 2026-05-06 16:05 | 41.98764 | 27.38117 | 33297 ft | 442 kts | 299° |
| 2026-05-06 16:06 | 42.00374 | 27.34717 | 33640 ft | 443 kts | 299° |
| 2026-05-06 16:06 | 42.01688 | 27.31935 | 33923 ft | 444 kts | 298° |
| 2026-05-06 16:06 | 42.05555 | 27.23901 | 34671 ft | 449 kts | 302° |
| 2026-05-06 16:07 | 42.07427 | 27.20515 | 34957 ft | 453 kts | 305° |
| 2026-05-06 16:07 | 42.09463 | 27.17229 | 35231 ft | 456 kts | 308° |
| 2026-05-06 16:07 | 42.11384 | 27.14324 | 35500 ft | 458 kts | 308° |
| 2026-05-06 16:07 | 42.13542 | 27.11120 | 35865 ft | 457 kts | 309° |
| 2026-05-06 16:08 | 42.15670 | 27.07960 | 36269 ft | 455 kts | 309° |
| 2026-05-06 16:08 | 42.17785 | 27.04803 | 36687 ft | 452 kts | 309° |
| 2026-05-06 16:08 | 42.19870 | 27.01675 | 37062 ft | 450 kts | 309° |
| 2026-05-06 16:08 | 42.21843 | 26.98705 | 37408 ft | 448 kts | 309° |
| 2026-05-06 16:09 | 42.23858 | 26.95664 | 37765 ft | 446 kts | 309° |
| 2026-05-06 16:09 | 42.25912 | 26.92557 | 38114 ft | 444 kts | 309° |
| 2026-05-06 16:09 | 42.27954 | 26.89463 | 38429 ft | 442 kts | 309° |
| 2026-05-06 16:09 | 42.29976 | 26.86397 | 38689 ft | 442 kts | 310° |
| 2026-05-06 16:10 | 42.32015 | 26.83305 | 38897 ft | 442 kts | 310° |
| 2026-05-06 16:10 | 42.34065 | 26.80194 | 39072 ft | 444 kts | 310° |
| 2026-05-06 16:10 | 42.36103 | 26.77097 | 39238 ft | 445 kts | 310° |
| 2026-05-06 16:10 | 42.38174 | 26.73945 | 39411 ft | 446 kts | 310° |
| 2026-05-06 16:11 | 42.40193 | 26.70866 | 39569 ft | 447 kts | 310° |
| 2026-05-06 16:11 | 42.42245 | 26.67732 | 39726 ft | 448 kts | 310° |
| 2026-05-06 16:11 | 42.44291 | 26.64603 | 39877 ft | 449 kts | 310° |
| 2026-05-06 16:11 | 42.46365 | 26.61427 | 40024 ft | 450 kts | 310° |
| 2026-05-06 16:12 | 42.50502 | 26.55060 | 40058 ft | 451 kts | 308° |
| 2026-05-06 16:12 | 42.54319 | 26.48283 | 40043 ft | 450 kts | 303° |
| 2026-05-06 16:13 | 42.57565 | 26.41053 | 40019 ft | 449 kts | 297° |
| 2026-05-06 16:13 | 42.60517 | 26.33599 | 39994 ft | 449 kts | 296° |
| 2026-05-06 16:14 | 42.63448 | 26.26108 | 39976 ft | 449 kts | 296° |
| 2026-05-06 16:14 | 42.66385 | 26.18606 | 39968 ft | 449 kts | 296° |
| 2026-05-06 16:15 | 42.69103 | 26.11666 | 39965 ft | 450 kts | 296° |
| 2026-05-06 16:15 | 42.72102 | 26.03995 | 39964 ft | 450 kts | 296° |
| 2026-05-06 16:16 | 42.75028 | 25.96491 | 39964 ft | 450 kts | 296° |
| 2026-05-06 16:16 | 42.77945 | 25.88998 | 39964 ft | 450 kts | 296° |
| 2026-05-06 16:17 | 42.80885 | 25.81427 | 39964 ft | 450 kts | 296° |
| 2026-05-06 16:17 | 42.83804 | 25.73888 | 39964 ft | 450 kts | 296° |
| 2026-05-06 16:18 | 42.86725 | 25.66305 | 39958 ft | 454 kts | 298° |
| 2026-05-06 16:18 | 42.89704 | 25.58565 | 39979 ft | 463 kts | 298° |
| 2026-05-06 16:19 | 42.92723 | 25.50716 | 39990 ft | 471 kts | 298° |
| 2026-05-06 16:19 | 42.95746 | 25.42827 | 39994 ft | 473 kts | 298° |
| 2026-05-06 16:20 | 42.98793 | 25.34848 | 39996 ft | 473 kts | 297° |
| 2026-05-06 16:20 | 43.01778 | 25.26984 | 39998 ft | 473 kts | 297° |
| 2026-05-06 16:21 | 43.04808 | 25.18985 | 39998 ft | 473 kts | 297° |
| 2026-05-06 16:21 | 43.07821 | 25.11025 | 39998 ft | 473 kts | 297° |
| 2026-05-06 16:22 | 43.10661 | 25.03508 | 39998 ft | 473 kts | 297° |